Time;durP1;ratioP1;P1;durP2;ratioP2;P2;SDS_P1;SDS_P2;PMS_P1;PMS_P2;Temp;Humidity;BMP_temperature;BMP_pressure;BME280_temperature;BME280_humidity;BME280_pressure;Samples;Min_cycle;Max_cycle;Signal;HPM_P1;HPM_P2
2022/12/26 05:34:16;;;;;;;18.57;14.77;;;13.00;99.90;;;;;;4591491;19;20090;-33
2022/12/26 05:35:48;;;;;;;21.27;15.77;;;13.00;99.90;;;;;;4591449;19;20078;-30
2022/12/26 05:37:21;;;;;;;19.40;14.13;;;13.00;99.90;;;;;;4591697;19;20482;-30
2022/12/26 05:38:57;;;;;;;18.90;14.07;;;12.90;99.90;;;;;;4591406;19;20026;-32
2022/12/26 05:40:29;;;;;;;19.70;14.83;;;13.00;99.90;;;;;;4591701;19;20055;-31
2022/12/26 05:42:00;;;;;;;20.30;14.90;;;13.00;99.90;;;;;;4591955;19;20523;-30
2022/12/26 05:43:32;;;;;;;16.48;13.00;;;13.00;99.90;;;;;;4591957;19;20013;-29
2022/12/26 05:45:03;;;;;;;17.27;13.68;;;13.00;99.90;;;;;;4591436;19;20014;-30
2022/12/26 05:46:34;;;;;;;17.13;13.60;;;13.00;99.90;;;;;;4591525;19;20010;-30
2022/12/26 05:48:07;;;;;;;18.70;13.10;;;13.00;99.90;;;;;;4590362;19;20398;-29
2022/12/26 05:49:39;;;;;;;17.60;13.50;;;13.00;99.90;;;;;;4591557;19;20413;-28
2022/12/26 05:51:11;;;;;;;17.43;14.13;;;12.90;99.90;;;;;;4590921;19;20011;-29
2022/12/26 05:52:58;;;;;;;17.33;13.67;;;13.00;99.90;;;;;;4592213;19;20015;-31
2022/12/26 05:54:29;;;;;;;18.60;13.80;;;13.00;99.90;;;;;;4592795;19;20129;-29
2022/12/26 05:56:10;;;;;;;18.23;14.18;;;12.90;99.90;;;;;;4591423;19;20026;-31
2022/12/26 05:57:41;;;;;;;19.20;13.98;;;12.90;99.90;;;;;;4593627;19;20074;-29
2022/12/26 05:59:12;;;;;;;20.60;15.15;;;12.90;99.90;;;;;;4592584;19;20026;-30
2022/12/26 06:00:43;;;;;;;16.63;13.18;;;13.00;99.90;;;;;;4593290;19;20341;-32
2022/12/26 06:02:16;;;;;;;16.93;14.57;;;13.00;99.90;;;;;;4592586;19;20017;-30
2022/12/26 06:03:49;;;;;;;20.83;14.50;;;13.00;99.90;;;;;;4591778;19;20014;-30
2022/12/26 06:05:20;;;;;;;19.13;13.83;;;13.00;99.90;;;;;;4593181;19;20015;-30
2022/12/26 06:06:56;;;;;;;16.90;13.10;;;13.00;99.90;;;;;;4591466;19;20028;-29
2022/12/26 06:08:27;;;;;;;19.80;14.90;;;13.00;99.90;;;;;;4592476;19;20515;-32
2022/12/26 06:09:58;;;;;;;19.08;13.63;;;13.00;99.90;;;;;;4592525;19;20039;-29
2022/12/26 06:11:30;;;;;;;18.07;13.77;;;12.90;99.90;;;;;;4591378;19;20110;-29
2022/12/26 06:13:01;;;;;;;17.45;13.35;;;12.90;99.90;;;;;;4591128;19;20019;-32
2022/12/26 06:14:33;;;;;;;19.67;14.05;;;12.90;99.90;;;;;;4593426;19;20014;-32
2022/12/26 06:16:09;;;;;;;16.90;13.50;;;12.90;99.90;;;;;;4590565;19;20027;-30
2022/12/26 06:17:43;;;;;;;19.47;15.23;;;12.90;99.90;;;;;;4593458;19;20018;-28
2022/12/26 06:19:15;;;;;;;18.87;14.57;;;13.00;99.90;;;;;;4592373;19;20019;-29
2022/12/26 06:20:47;;;;;;;17.85;13.73;;;12.90;99.90;;;;;;4592981;19;20399;-29
2022/12/26 06:22:18;;;;;;;18.20;14.20;;;12.90;99.90;;;;;;4590696;19;20044;-30
2022/12/26 06:23:50;;;;;;;22.48;18.95;;;12.90;99.90;;;;;;4587950;19;20026;-31
2022/12/26 06:25:22;;;;;;;22.77;20.37;;;12.90;99.90;;;;;;4590529;19;20022;-29
2022/12/26 06:26:54;;;;;;;21.45;18.40;;;12.90;99.90;;;;;;4590840;19;20036;-31
2022/12/26 06:28:25;;;;;;;22.38;16.90;;;12.90;99.90;;;;;;4587921;19;20021;-31
2022/12/26 06:29:57;;;;;;;20.57;15.27;;;12.90;99.90;;;;;;4590276;19;20102;-28
2022/12/26 06:31:29;;;;;;;18.73;13.30;;;12.90;99.90;;;;;;4589130;19;20022;-29
2022/12/26 06:33:00;;;;;;;19.98;14.20;;;12.90;99.90;;;;;;4589263;19;20015;-29
2022/12/26 06:34:32;;;;;;;19.00;13.80;;;12.90;99.90;;;;;;4590479;19;20024;-29
2022/12/26 06:36:05;;;;;;;17.35;13.68;;;12.90;99.90;;;;;;4588693;19;20017;-30
2022/12/26 06:37:37;;;;;;;18.17;14.07;;;12.90;99.90;;;;;;4591004;19;20015;-28
2022/12/26 06:39:19;;;;;;;19.10;14.57;;;12.90;99.90;;;;;;4589820;19;20326;-31
2022/12/26 06:40:59;;;;;;;18.73;14.73;;;12.90;99.90;;;;;;4590898;19;20088;-29
2022/12/26 06:42:39;;;;;;;19.27;13.90;;;12.90;99.90;;;;;;4590113;19;20018;-32
2022/12/26 06:44:17;;;;;;;18.73;14.80;;;12.90;99.90;;;;;;4589177;19;20014;-29
2022/12/26 06:45:56;;;;;;;17.70;14.03;;;12.90;99.90;;;;;;4590287;19;20516;-29
2022/12/26 06:50:10;;;;;;;18.33;14.30;;;12.90;99.90;;;;;;4589468;19;20011;-30
2022/12/26 06:51:43;;;;;;;19.97;14.93;;;12.90;99.90;;;;;;4590634;19;20408;-31
2022/12/26 06:53:15;;;;;;;20.40;14.67;;;12.90;99.90;;;;;;4590183;19;20020;-29
2022/12/26 06:54:46;;;;;;;17.92;14.00;;;12.90;99.90;;;;;;4590540;19;20035;-29
2022/12/26 06:56:27;;;;;;;19.95;15.13;;;12.90;99.90;;;;;;4591379;19;20014;-30
2022/12/26 06:57:58;;;;;;;24.63;16.67;;;12.90;99.90;;;;;;4589704;19;20512;-29
2022/12/26 06:59:29;;;;;;;23.40;15.77;;;12.90;99.90;;;;;;4589928;19;20015;-28
2022/12/26 07:01:11;;;;;;;20.75;15.05;;;12.90;99.90;;;;;;4589151;19;20015;-30
2022/12/26 07:02:42;;;;;;;23.75;14.75;;;12.90;99.90;;;;;;4588832;19;20018;-29
2022/12/26 07:04:14;;;;;;;20.98;15.75;;;12.90;99.90;;;;;;4590356;19;20010;-29
2022/12/26 07:05:45;;;;;;;18.57;14.03;;;12.90;99.90;;;;;;4589109;19;20119;-32
2022/12/26 07:07:17;;;;;;;21.80;14.90;;;12.90;99.90;;;;;;4589621;19;20375;-30
2022/12/26 07:08:48;;;;;;;;;;;12.90;99.90;;;;;;4589771;19;20011;-32
2022/12/26 07:10:19;;;;;;;17.73;13.50;;;12.90;99.90;;;;;;4590461;19;19957;-32
2022/12/26 07:11:51;;;;;;;18.02;13.55;;;12.90;99.90;;;;;;4589459;19;20015;-29
2022/12/26 07:13:22;;;;;;;20.70;13.70;;;12.90;99.90;;;;;;4589304;19;20018;-31
2022/12/26 07:14:53;;;;;;;16.08;13.00;;;12.90;99.90;;;;;;4590410;19;20460;-30
2022/12/26 07:16:24;;;;;;;19.20;13.07;;;12.90;99.90;;;;;;4588769;19;20062;-30
2022/12/26 07:17:55;;;;;;;19.95;14.50;;;12.90;99.90;;;;;;4590549;19;20054;-29
2022/12/26 07:19:26;;;;;;;16.83;12.02;;;12.90;99.90;;;;;;4589511;19;20102;-30
2022/12/26 07:20:58;;;;;;;19.95;13.63;;;12.90;99.90;;;;;;4589852;19;20010;-31
2022/12/26 07:22:29;;;;;;;17.27;13.10;;;12.90;99.90;;;;;;4588780;19;20051;-29
2022/12/26 07:24:00;;;;;;;18.83;14.27;;;13.00;99.90;;;;;;4589450;19;20038;-30
2022/12/26 07:25:32;;;;;;;18.83;14.20;;;13.00;99.90;;;;;;4592611;19;20036;-29
2022/12/26 07:27:03;;;;;;;17.30;13.80;;;13.10;99.90;;;;;;4590251;19;20472;-29
2022/12/26 07:28:35;;;;;;;17.30;13.00;;;13.10;99.90;;;;;;4591364;19;20038;-32
2022/12/26 07:30:07;;;;;;;16.92;12.35;;;13.20;99.90;;;;;;4589990;19;20037;-29
2022/12/26 07:31:39;;;;;;;18.37;14.40;;;13.30;99.90;;;;;;4588897;19;20019;-29
2022/12/26 07:33:11;;;;;;;;;;;13.40;99.90;;;;;;4591915;19;20026;-29
2022/12/26 07:34:42;;;;;;;22.20;17.97;;;13.40;99.90;;;;;;4590427;19;19915;-30
2022/12/26 07:36:13;;;;;;;22.17;15.57;;;13.50;99.90;;;;;;4590378;19;20018;-30
2022/12/26 07:37:44;;;;;;;20.80;15.63;;;13.50;99.90;;;;;;4590770;19;20006;-29
2022/12/26 07:39:16;;;;;;;17.00;13.60;;;13.50;99.90;;;;;;4590891;19;20011;-32
2022/12/26 07:40:47;;;;;;;17.40;13.63;;;13.60;99.90;;;;;;4588565;19;20026;-29
2022/12/26 07:42:19;;;;;;;16.38;13.20;;;13.60;99.90;;;;;;4591479;19;20093;-32
2022/12/26 07:43:50;;;;;;;19.37;13.10;;;13.60;99.90;;;;;;4589178;19;20487;-29
2022/12/26 07:45:22;;;;;;;17.25;13.35;;;13.60;99.90;;;;;;4589559;19;20025;-29
2022/12/26 07:46:53;;;;;;;15.68;13.23;;;13.50;99.90;;;;;;4590133;19;20015;-29
2022/12/26 07:48:25;;;;;;;18.37;13.53;;;13.60;99.90;;;;;;4590553;19;20038;-30
2022/12/26 07:51:42;;;;;;;17.53;12.83;;;13.50;99.90;;;;;;4587086;19;20034;-28
2022/12/26 07:53:14;;;;;;;18.40;13.43;;;13.50;99.90;;;;;;4590872;19;20480;-29
2022/12/26 07:54:45;;;;;;;15.32;12.05;;;13.50;99.90;;;;;;4590437;19;20370;-30
2022/12/26 07:56:16;;;;;;;17.27;12.82;;;13.50;99.90;;;;;;4591019;19;20007;-31
2022/12/26 07:57:50;;;;;;;15.13;11.32;;;13.40;99.90;;;;;;4588242;19;20014;-28
2022/12/26 07:59:22;;;;;;;13.87;11.23;;;13.40;99.90;;;;;;4589596;19;20078;-29
2022/12/26 08:00:53;;;;;;;16.08;11.98;;;13.40;99.90;;;;;;4588482;19;20022;-30
2022/12/26 08:02:25;;;;;;;16.63;12.70;;;13.40;99.90;;;;;;4589877;19;20021;-31
2022/12/26 08:03:56;;;;;;;17.10;11.52;;;13.40;99.90;;;;;;4591226;19;20014;-31
2022/12/26 08:05:27;;;;;;;15.32;11.65;;;13.40;99.90;;;;;;4589868;19;20026;-33
2022/12/26 08:06:59;;;;;;;15.65;11.57;;;13.40;99.90;;;;;;4591218;19;20051;-29
2022/12/26 08:08:30;;;;;;;14.65;11.75;;;13.40;99.90;;;;;;4587996;19;20022;-28
2022/12/26 08:10:01;;;;;;;14.77;11.43;;;13.40;99.90;;;;;;4590928;19;20022;-31
2022/12/26 08:11:34;;;;;;;14.97;11.07;;;13.40;99.90;;;;;;4588264;19;20046;-29
2022/12/26 08:13:06;;;;;;;14.60;10.60;;;13.40;99.90;;;;;;4590078;19;20038;-30
2022/12/26 08:14:37;;;;;;;12.55;10.10;;;13.40;99.90;;;;;;4589709;19;20034;-31
2022/12/26 08:16:11;;;;;;;13.40;10.23;;;13.40;99.90;;;;;;4590348;19;20350;-30
2022/12/26 08:17:42;;;;;;;15.23;11.67;;;13.30;99.90;;;;;;4588187;19;20492;-29
2022/12/26 08:19:13;;;;;;;16.45;11.30;;;13.30;99.90;;;;;;4588055;19;20025;-30
2022/12/26 08:20:44;;;;;;;13.55;10.57;;;13.30;99.90;;;;;;4588067;19;20704;-30
2022/12/26 08:22:15;;;;;;;13.90;11.00;;;13.30;99.90;;;;;;4590247;19;20010;-32
2022/12/26 08:23:47;;;;;;;14.25;11.13;;;13.30;99.90;;;;;;4590345;19;20014;-31
2022/12/26 08:25:18;;;;;;;15.70;10.10;;;13.30;99.90;;;;;;4590381;19;20006;-30
2022/12/26 08:26:49;;;;;;;13.27;10.48;;;13.30;99.90;;;;;;4588992;19;20014;-29
2022/12/26 08:28:20;;;;;;;17.55;13.77;;;13.30;99.90;;;;;;4589117;19;20014;-29
2022/12/26 08:29:53;;;;;;;19.58;14.90;;;13.20;99.90;;;;;;4590239;19;20082;-29
2022/12/26 08:31:25;;;;;;;20.33;14.40;;;13.20;99.90;;;;;;4586930;19;20037;-30
2022/12/26 08:32:57;;;;;;;15.00;12.50;;;13.20;99.90;;;;;;4587140;19;20326;-29
2022/12/26 08:34:32;;;;;;;;;;;13.20;99.90;;;;;;4587591;19;20020;-31
2022/12/26 08:36:05;;;;;;;16.30;12.90;;;13.20;99.90;;;;;;4587776;19;19923;-30
2022/12/26 08:37:36;;;;;;;14.13;12.37;;;13.20;99.90;;;;;;4587821;19;20025;-29
2022/12/26 08:39:08;;;;;;;15.73;13.13;;;13.20;99.90;;;;;;4587473;19;20010;-31
2022/12/26 08:40:39;;;;;;;16.53;13.53;;;13.20;99.90;;;;;;4586321;19;20522;-31
2022/12/26 08:42:10;;;;;;;17.45;12.23;;;13.10;99.90;;;;;;4587565;19;20039;-29
2022/12/26 08:43:42;;;;;;;13.75;10.60;;;13.20;99.90;;;;;;4586531;19;20036;-30
2022/12/26 08:45:13;;;;;;;12.32;9.93;;;13.20;99.90;;;;;;4587262;19;20018;-29
2022/12/26 08:46:44;;;;;;;12.32;10.00;;;13.20;99.90;;;;;;4586919;19;20018;-30
2022/12/26 08:48:17;;;;;;;11.73;9.80;;;13.20;99.90;;;;;;4585523;19;20018;-31
2022/12/26 08:49:49;;;;;;;14.90;10.33;;;13.20;99.90;;;;;;4587049;19;20015;-30
2022/12/26 08:51:21;;;;;;;14.05;9.88;;;13.20;99.90;;;;;;4588264;19;20022;-30
2022/12/26 08:54:38;;;;;;;12.93;9.97;;;13.20;99.90;;;;;;4589974;19;20002;-30
2022/12/26 08:56:14;;;;;;;14.57;11.17;;;13.20;99.90;;;;;;4588910;19;20062;-30
2022/12/26 08:57:46;;;;;;;11.83;10.33;;;13.20;99.90;;;;;;4588823;19;20019;-30
2022/12/26 08:59:17;;;;;;;13.65;10.45;;;13.20;99.90;;;;;;4588821;19;20052;-31
2022/12/26 09:00:48;;;;;;;13.48;10.93;;;13.20;99.90;;;;;;4587080;19;20014;-29
2022/12/26 09:02:20;;;;;;;18.23;12.32;;;13.10;99.90;;;;;;4587770;19;20026;-29
2022/12/26 09:03:56;;;;;;;22.00;17.87;;;13.20;99.90;;;;;;4587741;19;20392;-29
2022/12/26 09:05:28;;;;;;;29.50;21.97;;;13.20;99.90;;;;;;4589811;19;20018;-30
2022/12/26 09:06:59;;;;;;;19.55;16.60;;;13.10;99.90;;;;;;4588609;19;20067;-31
2022/12/26 09:08:33;;;;;;;;;;;13.10;99.90;;;;;;4589129;19;20022;-28
2022/12/26 09:10:06;;;;;;;14.83;10.90;;;13.10;99.90;;;;;;4588349;19;20321;-28
2022/12/26 09:11:37;;;;;;;;;;;13.10;99.90;;;;;;4587960;19;20419;-29
2022/12/26 09:13:08;;;;;;;19.97;15.80;;;13.20;99.90;;;;;;4588385;19;19934;-30
2022/12/26 09:14:39;;;;;;;23.88;20.33;;;13.20;99.90;;;;;;4587463;19;20491;-33
2022/12/26 09:16:12;;;;;;;19.90;15.38;;;13.20;99.90;;;;;;4587832;19;20023;-32
2022/12/26 09:17:43;;;;;;;24.80;18.83;;;13.30;99.90;;;;;;4588440;19;20027;-31
2022/12/26 09:19:16;;;;;;;27.00;21.55;;;13.40;99.90;;;;;;4588187;19;20010;-30
2022/12/26 09:20:47;;;;;;;25.03;20.47;;;13.40;99.90;;;;;;4587566;19;20021;-31
2022/12/26 09:24:16;;;;;;;16.10;11.90;;;13.50;99.90;;;;;;4590142;19;20018;-30
2022/12/26 09:25:47;;;;;;;15.27;11.40;;;13.60;99.90;;;;;;4589728;19;20029;-29
2022/12/26 09:27:20;;;;;;;;;;;13.70;99.90;;;;;;4587081;19;20025;-27
2022/12/26 09:28:52;;;;;;;14.73;11.20;;;13.70;99.90;;;;;;4586209;19;19918;-28
2022/12/26 09:30:38;;;;;;;14.17;10.90;;;13.80;99.90;;;;;;4588950;19;20589;-31
2022/12/26 09:32:09;;;;;;;12.60;9.55;;;13.80;99.90;;;;;;4588843;19;20019;-28
2022/12/26 09:33:42;;;;;;;13.90;11.05;;;13.80;99.90;;;;;;4588824;19;20455;-28
2022/12/26 09:35:13;;;;;;;17.00;13.27;;;13.80;99.90;;;;;;4589254;19;20015;-32
2022/12/26 09:36:45;;;;;;;17.45;14.02;;;13.80;99.90;;;;;;4588755;19;20037;-29
2022/12/26 09:38:16;;;;;;;17.17;12.35;;;13.70;99.90;;;;;;4588265;19;20344;-30
2022/12/26 09:39:48;;;;;;;15.43;11.73;;;13.70;99.90;;;;;;4588384;19;20486;-29
2022/12/26 09:41:58;;;;;;;13.63;11.35;;;13.70;99.90;;;;;;4587341;19;20073;-31
2022/12/26 09:43:47;;;;;;;14.17;11.77;;;13.70;99.90;;;;;;4585611;19;20011;-33
2022/12/26 09:45:23;;;;;;;12.63;10.03;;;13.70;99.90;;;;;;4586887;19;20022;-30
2022/12/26 09:47:13;;;;;;;11.80;9.90;;;13.70;99.90;;;;;;4588023;19;20032;-30
2022/12/26 09:48:57;;;;;;;13.93;12.43;;;13.70;99.90;;;;;;4589601;19;20538;-31
2022/12/26 09:50:36;;;;;;;15.77;13.53;;;13.70;99.90;;;;;;4589877;19;20038;-30
2022/12/26 09:52:12;;;;;;;14.13;12.07;;;13.70;99.90;;;;;;4593362;19;20034;-31
2022/12/26 09:57:15;;;;;;;16.80;11.97;;;13.70;99.90;;;;;;4592414;19;20045;-30
2022/12/26 09:58:51;;;;;;;19.55;13.68;;;13.70;99.90;;;;;;4591913;19;20026;-30
2022/12/26 10:00:28;;;;;;;16.20;11.90;;;13.70;99.90;;;;;;4588966;19;20077;-31
2022/12/26 10:02:00;;;;;;;13.57;10.35;;;13.70;99.90;;;;;;4590689;19;20105;-30
2022/12/26 10:03:37;;;;;;;13.25;9.55;;;13.70;99.90;;;;;;4591095;19;20014;-30
2022/12/26 10:05:12;;;;;;;12.10;8.77;;;13.60;99.90;;;;;;4590826;19;20068;-29
2022/12/26 10:06:51;;;;;;;11.48;8.95;;;13.60;99.90;;;;;;4591187;19;20536;-31
2022/12/26 10:08:39;;;;;;;12.67;10.57;;;13.60;99.90;;;;;;4590250;19;20014;-29
2022/12/26 10:10:39;;;;;;;12.13;9.87;;;13.60;99.90;;;;;;4590873;19;20010;-32
2022/12/26 10:12:46;;;;;;;12.33;10.33;;;13.60;99.90;;;;;;4590984;19;20127;-31
2022/12/26 10:14:40;;;;;;;13.87;10.40;;;13.60;99.90;;;;;;4589597;19;20021;-31
2022/12/26 10:16:15;;;;;;;13.20;9.87;;;13.60;99.90;;;;;;4590100;19;20014;-30
2022/12/26 10:18:00;;;;;;;12.50;9.00;;;13.60;99.90;;;;;;4590792;19;20488;-30
2022/12/26 10:19:43;;;;;;;12.77;10.10;;;13.60;99.90;;;;;;4590179;19;20473;-31
2022/12/26 10:21:27;;;;;;;17.55;12.60;;;13.60;99.90;;;;;;4590574;19;20420;-29
2022/12/26 10:23:21;;;;;;;19.60;13.70;;;13.50;99.90;;;;;;4590068;19;20414;-30
2022/12/26 10:24:52;;;;;;;16.98;12.65;;;13.40;99.90;;;;;;4590768;19;20010;-32
2022/12/26 10:26:35;;;;;;;14.18;11.55;;;13.40;99.90;;;;;;4590154;19;20011;-28
2022/12/26 10:28:35;;;;;;;13.20;11.27;;;13.40;99.90;;;;;;4589757;19;20022;-29
2022/12/26 10:30:07;;;;;;;11.67;9.97;;;13.40;99.90;;;;;;4589989;19;20078;-33
2022/12/26 10:31:48;;;;;;;12.47;9.97;;;13.40;99.90;;;;;;4589499;19;20056;-30
2022/12/26 10:33:35;;;;;;;13.75;11.65;;;13.40;99.90;;;;;;4589910;19;20021;-32
2022/12/26 10:35:30;;;;;;;12.00;10.23;;;13.30;99.90;;;;;;4591671;19;20021;-30
2022/12/26 10:37:27;;;;;;;12.47;8.73;;;13.30;99.90;;;;;;4590650;19;20011;-31
2022/12/26 10:38:59;;;;;;;12.73;9.90;;;13.40;99.90;;;;;;4589978;19;20040;-29
2022/12/26 10:40:41;;;;;;;9.87;7.90;;;13.50;99.90;;;;;;4588530;19;20014;-29
2022/12/26 10:42:25;;;;;;;11.27;8.15;;;13.60;99.90;;;;;;4592068;19;20011;-30
2022/12/26 10:43:56;;;;;;;11.55;8.68;;;13.70;99.90;;;;;;4589810;19;20136;-30
2022/12/26 10:45:31;;;;;;;11.20;8.50;;;13.80;99.90;;;;;;4590304;19;20010;-30
2022/12/26 10:47:17;;;;;;;13.77;11.10;;;13.70;99.90;;;;;;4589678;19;20021;-30
2022/12/26 10:48:49;;;;;;;13.60;11.40;;;13.60;99.90;;;;;;4588813;19;20014;-31
2022/12/26 10:50:27;;;;;;;15.00;11.97;;;13.60;99.90;;;;;;4588497;19;20039;-30
2022/12/26 10:52:00;;;;;;;13.60;10.63;;;13.60;99.90;;;;;;4591461;19;20010;-29
2022/12/26 10:53:33;;;;;;;12.83;9.97;;;13.50;99.90;;;;;;4588696;19;20074;-29
2022/12/26 10:55:05;;;;;;;11.43;9.47;;;13.50;99.90;;;;;;4589509;19;20015;-32
2022/12/26 12:21:18;;;;;;;16.10;10.80;;;13.10;99.90;;;;;;4590411;19;20010;-31
2022/12/26 12:23:11;;;;;;;18.27;12.40;;;13.10;99.90;;;;;;4590065;19;20067;-31
2022/12/26 12:24:59;;;;;;;17.97;12.10;;;13.10;99.90;;;;;;4590100;19;20490;-29
2022/12/26 12:26:38;;;;;;;17.60;10.87;;;13.10;99.90;;;;;;4589242;19;20007;-32
2022/12/26 12:28:32;;;;;;;23.10;12.43;;;13.10;99.90;;;;;;4588908;19;20019;-29
2022/12/26 12:30:21;;;;;;;18.13;10.73;;;13.10;99.90;;;;;;4589111;19;20068;-33
2022/12/26 12:31:52;;;;;;;20.77;12.37;;;13.10;99.90;;;;;;4590413;19;20019;-31
2022/12/26 12:33:27;;;;;;;25.48;16.10;;;13.00;99.90;;;;;;4589507;19;20491;-30
2022/12/26 12:35:22;;;;;;;21.77;16.73;;;13.10;99.90;;;;;;4589547;19;20019;-32
2022/12/26 12:37:05;;;;;;;21.40;17.07;;;13.10;99.90;;;;;;4588562;19;20011;-31
2022/12/26 12:38:45;;;;;;;30.47;17.67;;;13.10;99.90;;;;;;4590095;19;20361;-31
2022/12/26 12:40:47;;;;;;;19.67;11.97;;;13.10;99.90;;;;;;4589506;19;20010;-32
2022/12/26 12:42:23;;;;;;;20.63;12.13;;;13.10;99.90;;;;;;4590899;19;20460;-30
2022/12/26 12:43:57;;;;;;;18.33;12.73;;;13.00;99.90;;;;;;4589563;19;20011;-30
2022/12/26 12:46:02;;;;;;;14.57;9.60;;;13.00;99.90;;;;;;4590061;19;20096;-30
2022/12/26 12:47:48;;;;;;;29.83;17.33;;;13.00;99.90;;;;;;4587583;19;20618;-30
2022/12/26 12:49:19;;;;;;;17.47;11.17;;;13.00;99.90;;;;;;4588637;19;20014;-30
2022/12/26 12:51:03;;;;;;;19.20;11.55;;;13.00;99.90;;;;;;4588319;19;20486;-31
2022/12/26 12:53:06;;;;;;;17.40;10.83;;;13.10;99.90;;;;;;4591407;19;20030;-30
2022/12/26 12:54:49;;;;;;;12.07;8.33;;;13.10;99.90;;;;;;4590765;19;20010;-31
2022/12/26 12:56:39;;;;;;;18.63;10.90;;;13.10;99.90;;;;;;4591230;19;20007;-28
2022/12/26 12:58:36;;;;;;;23.87;12.90;;;13.10;99.90;;;;;;4590734;19;20014;-29
2022/12/26 13:00:12;;;;;;;18.57;10.83;;;13.10;99.90;;;;;;4591491;19;20464;-29
2022/12/26 13:01:46;;;;;;;24.97;13.00;;;13.10;99.90;;;;;;4589380;19;20017;-27
2022/12/26 13:03:46;;;;;;;29.93;14.97;;;13.10;99.90;;;;;;4589655;19;20017;-28
2022/12/26 13:05:39;;;;;;;29.83;13.50;;;13.10;99.90;;;;;;4591824;19;20015;-30
2022/12/26 13:07:33;;;;;;;34.40;16.90;;;13.10;99.90;;;;;;4591768;19;20014;-28
2022/12/26 13:09:17;;;;;;;34.43;17.70;;;13.10;99.90;;;;;;4588596;19;20045;-29
2022/12/26 13:11:00;;;;;;;31.57;16.27;;;13.10;99.90;;;;;;4585350;19;20085;-29
2022/12/26 13:12:36;;;;;;;36.60;17.90;;;13.10;99.90;;;;;;4585896;19;20019;-29
2022/12/26 13:14:12;;;;;;;41.37;22.30;;;13.10;99.90;;;;;;4587181;19;20472;-31
2022/12/26 13:15:45;;;;;;;31.17;17.50;;;13.10;99.90;;;;;;4587929;19;20002;-29
2022/12/26 13:17:30;;;;;;;24.10;15.13;;;13.10;99.90;;;;;;4588250;19;20011;-30
2022/12/26 13:19:05;;;;;;;16.10;11.27;;;13.10;99.90;;;;;;4587824;19;20017;-29
2022/12/26 13:24:48;;;;;;;30.00;18.30;;;13.10;99.90;;;;;;4591423;19;20027;-32
2022/12/26 13:26:40;;;;;;;40.20;23.43;;;13.10;99.90;;;;;;4591200;19;20022;-30
2022/12/26 13:28:15;;;;;;;50.58;29.60;;;13.10;99.90;;;;;;4591143;19;20018;-30
2022/12/26 13:29:46;;;;;;;61.50;36.40;;;13.10;99.90;;;;;;4589614;19;20488;-31
2022/12/26 13:31:18;;;;;;;45.77;28.23;;;13.20;99.90;;;;;;4590014;19;20014;-31
2022/12/26 13:32:49;;;;;;;29.92;19.90;;;13.10;99.90;;;;;;4591960;19;20362;-30
2022/12/26 13:34:20;;;;;;;24.08;17.05;;;13.10;99.90;;;;;;4592155;19;20015;-28
2022/12/26 13:35:54;;;;;;;19.00;14.00;;;13.10;99.90;;;;;;4591450;19;20029;-28
2022/12/26 13:37:37;;;;;;;16.07;11.43;;;13.10;99.90;;;;;;4591236;19;20014;-29
2022/12/26 13:39:08;;;;;;;17.80;12.67;;;13.10;99.90;;;;;;4591058;19;20066;-27
2022/12/26 13:45:40;;;;;;;16.07;12.10;;;13.10;99.90;;;;;;4591173;19;20394;-28
2022/12/26 13:47:31;;;;;;;16.93;13.17;;;13.10;99.90;;;;;;4591639;19;20021;-31
2022/12/26 13:49:02;;;;;;;17.93;12.57;;;13.10;99.90;;;;;;4590242;19;20409;-29
2022/12/26 13:50:48;;;;;;;14.52;10.75;;;13.00;99.90;;;;;;4589645;19;20086;-29
2022/12/26 13:52:24;;;;;;;13.37;9.77;;;13.00;99.90;;;;;;4590904;19;20010;-28
2022/12/26 13:53:57;;;;;;;14.80;10.33;;;13.00;99.90;;;;;;4590876;19;20015;-30
2022/12/26 13:55:31;;;;;;;20.60;14.17;;;13.00;99.90;;;;;;4591534;19;20011;-30
2022/12/26 13:57:40;;;;;;;21.17;13.80;;;13.00;99.90;;;;;;4590728;19;20025;-28
2022/12/26 13:59:20;;;;;;;17.53;11.80;;;13.00;99.90;;;;;;4591851;19;20003;-32
2022/12/26 14:00:51;;;;;;;14.43;11.13;;;13.00;99.90;;;;;;4589636;19;20487;-29
2022/12/26 14:02:38;;;;;;;14.43;9.50;;;13.10;99.90;;;;;;4590505;19;20082;-28
2022/12/26 14:04:36;;;;;;;12.97;10.47;;;13.10;99.90;;;;;;4591282;19;20770;-28
2022/12/26 14:06:17;;;;;;;10.30;6.73;;;13.10;99.90;;;;;;4590398;19;20006;-29
2022/12/26 14:07:53;;;;;;;7.83;5.43;;;13.10;99.90;;;;;;4591773;19;20031;-28
2022/12/26 14:09:57;;;;;;;7.60;5.53;;;13.10;99.90;;;;;;4591428;19;20487;-30
2022/12/26 14:11:42;;;;;;;8.53;5.63;;;13.10;99.90;;;;;;4589530;19;20353;-29
2022/12/26 14:13:48;;;;;;;7.40;5.60;;;13.10;99.90;;;;;;4590234;19;20026;-30
2022/12/26 14:15:53;;;;;;;8.33;6.17;;;13.10;99.90;;;;;;4590949;19;20045;-34
2022/12/26 14:17:45;;;;;;;6.70;4.50;;;13.10;99.90;;;;;;4589885;19;20381;-30
2022/12/26 14:19:35;;;;;;;;;;;13.10;99.90;;;;;;4591331;19;20510;-32
2022/12/26 14:21:37;;;;;;;9.83;6.70;;;13.10;99.90;;;;;;4587737;19;19923;-32
2022/12/26 14:24:54;;;;;;;9.50;6.50;;;13.00;99.90;;;;;;4591089;19;20599;-31
2022/12/26 14:26:34;;;;;;;9.05;6.70;;;13.00;99.90;;;;;;4590732;19;20358;-30
2022/12/26 14:28:16;;;;;;;12.23;9.43;;;13.00;99.90;;;;;;4590290;19;20470;-30
2022/12/26 14:30:00;;;;;;;;;;;13.00;99.90;;;;;;4589339;19;20011;-31
2022/12/26 14:31:34;;;;;;;19.97;15.23;;;13.10;99.90;;;;;;4588654;19;20337;-28
2022/12/26 14:33:17;;;;;;;17.27;13.33;;;13.10;99.90;;;;;;4588941;19;20089;-28
2022/12/26 14:35:09;;;;;;;15.20;11.87;;;13.10;99.90;;;;;;4588538;19;20022;-29
2022/12/26 14:36:49;;;;;;;16.30;12.87;;;13.10;99.90;;;;;;4589181;19;20018;-28
2022/12/26 14:38:45;;;;;;;12.43;8.90;;;13.10;99.90;;;;;;4588461;19;20903;-30
2022/12/26 14:40:34;;;;;;;13.07;8.40;;;13.10;99.90;;;;;;4587563;19;20014;-28
2022/12/26 14:44:09;;;;;;;13.20;9.67;;;13.10;99.90;;;;;;4589485;19;20497;-30
2022/12/26 14:45:44;;;;;;;15.70;11.83;;;13.10;99.90;;;;;;4589459;19;20126;-30
2022/12/26 14:47:43;;;;;;;32.80;25.73;;;13.10;99.90;;;;;;4589363;19;20508;-28
2022/12/26 14:49:32;;;;;;;19.10;14.20;;;13.10;99.90;;;;;;4589881;19;20480;-31
2022/12/26 14:51:03;;;;;;;21.07;17.67;;;13.10;99.90;;;;;;4590919;19;20006;-28
2022/12/26 14:52:36;;;;;;;;;;;13.10;99.90;;;;;;4591117;19;20014;-29
2022/12/26 14:54:16;;;;;;;21.43;15.70;;;13.10;99.90;;;;;;4591017;19;20293;-29
2022/12/26 14:56:01;;;;;;;18.07;14.33;;;13.10;99.90;;;;;;4590297;19;20030;-32
2022/12/26 14:57:49;;;;;;;20.57;14.60;;;13.00;99.90;;;;;;4590436;19;20015;-32
2022/12/26 14:59:31;;;;;;;18.63;13.63;;;13.00;99.90;;;;;;4590411;19;20010;-30
2022/12/26 15:01:14;;;;;;;22.63;15.67;;;13.10;99.90;;;;;;4589470;19;20474;-30
2022/12/26 15:03:02;;;;;;;24.83;19.07;;;13.10;99.90;;;;;;4591463;19;20015;-31
2022/12/26 15:04:52;;;;;;;23.33;17.90;;;13.10;99.90;;;;;;4590313;19;20015;-31
2022/12/26 15:06:51;;;;;;;29.93;20.77;;;13.10;99.90;;;;;;4590457;19;20014;-28
2022/12/26 15:08:53;;;;;;;27.10;20.10;;;13.10;99.90;;;;;;4591068;19;20010;-30
2022/12/26 15:10:30;;;;;;;30.25;19.98;;;13.10;99.90;;;;;;4588699;19;20536;-30
2022/12/26 15:12:30;;;;;;;32.40;22.53;;;13.10;99.90;;;;;;4590092;19;20356;-30
2022/12/26 15:14:10;;;;;;;44.53;27.13;;;13.10;99.90;;;;;;4590193;19;20361;-28
2022/12/26 15:15:58;;;;;;;45.53;30.03;;;13.10;99.90;;;;;;4589719;19;20017;-28
2022/12/26 15:17:33;;;;;;;45.13;29.83;;;13.10;99.90;;;;;;4588642;19;20382;-30
2022/12/26 15:19:39;;;;;;;50.87;32.20;;;13.10;99.90;;;;;;4588505;19;20019;-33
2022/12/26 15:21:37;;;;;;;55.50;35.10;;;13.10;99.90;;;;;;4587550;19;20019;-29
2022/12/26 15:23:26;;;;;;;57.87;36.00;;;13.10;99.90;;;;;;4590583;19;20018;-29
2022/12/26 15:26:58;;;;;;;64.23;42.03;;;13.10;99.90;;;;;;4590793;19;20456;-31
2022/12/26 15:28:35;;;;;;;62.50;41.20;;;13.10;99.90;;;;;;4590698;19;20527;-29
2022/12/26 15:30:19;;;;;;;74.20;54.83;;;13.10;99.90;;;;;;4590168;19;20042;-29
2022/12/26 15:31:55;;;;;;;102.13;76.60;;;13.10;99.90;;;;;;4590441;19;20074;-30
2022/12/26 15:33:51;;;;;;;73.33;48.57;;;13.10;99.90;;;;;;4591511;19;20025;-29
2022/12/26 15:35:54;;;;;;;63.10;40.37;;;13.10;99.90;;;;;;4588563;19;20476;-29
2022/12/26 15:37:58;;;;;;;54.95;34.25;;;13.10;99.90;;;;;;4590036;19;20019;-31
2022/12/26 15:40:00;;;;;;;56.33;36.37;;;13.10;99.90;;;;;;4592194;19;20078;-29
2022/12/26 15:41:45;;;;;;;49.40;29.75;;;13.10;99.90;;;;;;4589420;19;20025;-29
2022/12/26 15:43:37;;;;;;;49.07;30.70;;;13.10;99.90;;;;;;4590512;19;20081;-33
2022/12/26 15:45:34;;;;;;;44.70;28.10;;;13.10;99.90;;;;;;4587960;19;20010;-29